Time;durP1;ratioP1;P1;durP2;ratioP2;P2;SDS_P1;SDS_P2;PMS_P1;PMS_P2;Temp;Humidity;BMP_temperature;BMP_pressure;BME280_temperature;BME280_humidity;BME280_pressure;Samples;Min_cycle;Max_cycle;Signal;HPM_P1;HPM_P2
2022/05/05 00:00:43;;;;;;;10.32;8.80;;;;;;;;;;2073721;28;20181;-55
2022/05/05 00:01:44;;;;;;;11.07;8.27;;;;;;;;;;2074071;28;20521;-54
2022/05/05 00:02:44;;;;;;;9.48;8.40;;;;;;;;;;2081340;28;20161;-53
2022/05/05 00:03:45;;;;;;;10.55;9.45;;;;;;;;;;2081365;28;20820;-55
2022/05/05 00:04:45;;;;;;;10.57;8.55;;;;;;;;;;2073412;28;20185;-51
2022/05/05 00:05:45;;;;;;;14.88;9.52;;;;;;;;;;2073836;28;20180;-51
2022/05/05 00:06:46;;;;;;;10.80;8.27;;;;;;;;;;2073823;28;20173;-51
2022/05/05 00:07:46;;;;;;;10.40;8.70;;;;;;;;;;2073824;28;20195;-54
2022/05/05 00:08:46;;;;;;;9.45;8.52;;;;;;;;;;2074054;28;20169;-53
2022/05/05 00:09:47;;;;;;;11.13;9.00;;;;;;;;;;2073785;28;20165;-52
2022/05/05 00:14:43;;;;;;;10.80;7.97;;;;;;;;;;2073495;28;20248;-55
2022/05/05 00:15:44;;;;;;;9.65;8.02;;;;;;;;;;2073927;28;20543;-55
2022/05/05 00:16:45;;;;;;;9.55;8.50;;;;;;;;;;2073825;28;20178;-55
2022/05/05 00:17:45;;;;;;;12.38;9.63;;;;;;;;;;2073916;28;20255;-54
2022/05/05 00:18:45;;;;;;;10.00;8.90;;;;;;;;;;2073518;28;20181;-51
2022/05/05 00:19:46;;;;;;;12.27;7.90;;;;;;;;;;2073935;28;20189;-55
2022/05/05 00:20:46;;;;;;;13.70;8.52;;;;;;;;;;2073159;28;20161;-51
2022/05/05 00:21:46;;;;;;;12.75;9.57;;;;;;;;;;2073618;28;20228;-52
2022/05/05 00:22:46;;;;;;;13.77;9.60;;;;;;;;;;2073113;28;20668;-52
2022/05/05 00:23:47;;;;;;;9.13;8.23;;;;;;;;;;2073581;28;20201;-52
2022/05/05 00:24:47;;;;;;;11.55;8.45;;;;;;;;;;2073706;28;20657;-53
2022/05/05 00:25:47;;;;;;;11.02;8.88;;;;;;;;;;2073934;28;20165;-50
2022/05/05 00:26:47;;;;;;;13.02;9.38;;;;;;;;;;2073856;28;20216;-52
2022/05/05 00:27:48;;;;;;;11.07;8.70;;;;;;;;;;2077391;28;20247;-52
2022/05/05 00:28:48;;;;;;;12.70;9.00;;;;;;;;;;2078903;28;20576;-53
2022/05/05 00:29:49;;;;;;;11.68;7.72;;;;;;;;;;2073904;28;20227;-52
2022/05/05 00:30:50;;;;;;;11.32;8.20;;;;;;;;;;2074140;28;20189;-53
2022/05/05 00:31:50;;;;;;;9.88;8.88;;;;;;;;;;2074071;28;20248;-54
2022/05/05 00:32:50;;;;;;;12.55;9.60;;;;;;;;;;2073800;28;20157;-51
2022/05/05 00:33:50;;;;;;;10.80;9.10;;;;;;;;;;2073685;28;20216;-53
2022/05/05 00:34:50;;;;;;;11.95;9.25;;;;;;;;;;2072748;28;20183;-52
2022/05/05 00:35:51;;;;;;;12.63;9.45;;;;;;;;;;2073503;28;20271;-52
2022/05/05 00:36:51;;;;;;;12.02;8.68;;;;;;;;;;2073336;28;20169;-51
2022/05/05 00:37:51;;;;;;;10.43;8.32;;;;;;;;;;2073378;28;20701;-53
2022/05/05 00:38:51;;;;;;;12.77;9.02;;;;;;;;;;2073831;28;20184;-52
2022/05/05 00:39:52;;;;;;;9.55;8.57;;;;;;;;;;2073972;28;20647;-54
2022/05/05 00:40:52;;;;;;;14.70;8.93;;;;;;;;;;2073883;28;20657;-52
2022/05/05 00:41:52;;;;;;;13.73;9.23;;;;;;;;;;2073569;28;20164;-52
2022/05/05 00:42:52;;;;;;;10.98;8.80;;;;;;;;;;2074013;28;20192;-55
2022/05/05 00:43:53;;;;;;;12.63;8.88;;;;;;;;;;2072498;28;20204;-54
2022/05/05 00:44:53;;;;;;;8.88;7.78;;;;;;;;;;2072135;28;20183;-53
2022/05/05 00:45:53;;;;;;;11.43;8.05;;;;;;;;;;2074316;28;20176;-52
2022/05/05 00:46:53;;;;;;;8.73;7.57;;;;;;;;;;2074855;28;20165;-51
2022/05/05 00:48:07;;;;;;;10.32;8.35;;;;;;;;;;2074480;28;20165;-52
2022/05/05 00:49:07;;;;;;;12.23;8.07;;;;;;;;;;2074275;28;20177;-52
2022/05/05 00:50:08;;;;;;;9.63;8.70;;;;;;;;;;2073385;28;20259;-54
2022/05/05 00:51:08;;;;;;;10.40;9.02;;;;;;;;;;2073758;28;20181;-51
2022/05/05 00:52:08;;;;;;;14.13;9.18;;;;;;;;;;2074402;28;20184;-54
2022/05/05 00:53:08;;;;;;;9.77;8.32;;;;;;;;;;2074249;28;20185;-54
2022/05/05 00:54:09;;;;;;;9.68;7.90;;;;;;;;;;2073810;28;20173;-52
2022/05/05 00:55:09;;;;;;;10.02;8.40;;;;;;;;;;2073393;28;20637;-52
2022/05/05 00:56:13;;;;;;;11.68;7.85;;;;;;;;;;2074291;28;20614;-52
2022/05/05 00:57:13;;;;;;;9.75;8.02;;;;;;;;;;2074363;28;20173;-52
2022/05/05 00:58:14;;;;;;;9.68;8.07;;;;;;;;;;2075103;28;20204;-52
2022/05/05 00:59:14;;;;;;;11.15;8.57;;;;;;;;;;2075232;28;20207;-52
2022/05/05 01:00:15;;;;;;;8.63;7.93;;;;;;;;;;2075480;28;20784;-51
2022/05/05 01:01:19;;;;;;;12.52;8.82;;;;;;;;;;2075379;28;20169;-52
2022/05/05 01:02:20;;;;;;;11.43;8.65;;;;;;;;;;2074906;28;20203;-53
2022/05/05 01:03:20;;;;;;;9.52;8.43;;;;;;;;;;2074935;28;20173;-54
2022/05/05 01:04:20;;;;;;;9.13;8.23;;;;;;;;;;2074490;28;20169;-52
2022/05/05 01:05:20;;;;;;;10.30;8.13;;;;;;;;;;2074764;28;20172;-52
2022/05/05 01:06:21;;;;;;;9.60;8.68;;;;;;;;;;2073887;28;20556;-51
2022/05/05 01:07:23;;;;;;;10.52;8.88;;;;;;;;;;2074145;28;20239;-52
2022/05/05 01:08:23;;;;;;;11.43;8.30;;;;;;;;;;2074125;28;20184;-53
2022/05/05 01:09:24;;;;;;;9.82;8.38;;;;;;;;;;2073601;28;20649;-52
2022/05/05 01:10:25;;;;;;;10.90;8.73;;;;;;;;;;2073410;28;20173;-55
2022/05/05 01:11:25;;;;;;;9.13;7.82;;;;;;;;;;2074154;28;20239;-53
2022/05/05 01:12:31;;;;;;;9.55;8.50;;;;;;;;;;2073685;28;20563;-54
2022/05/05 01:13:32;;;;;;;9.20;8.20;;;;;;;;;;2073970;28;20692;-52
2022/05/05 01:14:33;;;;;;;10.18;8.05;;;;;;;;;;2073246;28;20255;-55
2022/05/05 01:15:34;;;;;;;11.85;8.05;;;;;;;;;;2074382;28;20184;-52
2022/05/05 01:16:35;;;;;;;9.43;8.30;;;;;;;;;;2073852;28;20191;-54
2022/05/05 01:17:37;;;;;;;9.65;8.43;;;;;;;;;;2073892;28;20277;-56
2022/05/05 01:18:37;;;;;;;10.10;8.27;;;;;;;;;;2072501;28;20165;-52
2022/05/05 01:19:38;;;;;;;11.45;8.40;;;;;;;;;;2073689;28;20209;-53
2022/05/05 01:20:45;;;;;;;8.77;8.07;;;;;;;;;;2073428;28;20184;-52
2022/05/05 01:21:54;;;;;;;9.85;8.85;;;;;;;;;;2073414;28;20169;-52
2022/05/05 01:22:55;;;;;;;11.93;8.52;;;;;;;;;;2068074;28;20224;-52
2022/05/05 01:23:56;;;;;;;10.60;8.95;;;;;;;;;;2073548;28;20661;-53
2022/05/05 01:28:53;;;;;;;12.88;7.75;;;;;;;;;;2070654;28;20633;-52
2022/05/05 01:29:54;;;;;;;12.35;8.68;;;;;;;;;;2072803;28;20177;-55
2022/05/05 01:30:54;;;;;;;11.20;8.13;;;;;;;;;;2072819;28;20577;-51
2022/05/05 01:31:56;;;;;;;11.30;8.63;;;;;;;;;;2073578;28;20222;-55
2022/05/05 01:32:57;;;;;;;12.63;8.82;;;;;;;;;;2073574;28;20204;-51
2022/05/05 01:33:57;;;;;;;15.55;9.23;;;;;;;;;;2072526;28;20200;-52
2022/05/05 01:34:57;;;;;;;9.63;8.73;;;;;;;;;;2073121;28;20211;-51
2022/05/05 01:35:58;;;;;;;12.32;9.10;;;;;;;;;;2073499;28;20173;-51
2022/05/05 01:36:58;;;;;;;13.50;8.60;;;;;;;;;;2072607;28;20267;-53
2022/05/05 01:37:59;;;;;;;10.88;8.93;;;;;;;;;;2072866;28;20169;-52
2022/05/05 01:38:59;;;;;;;14.15;10.55;;;;;;;;;;2073085;28;20587;-52
2022/05/05 01:39:59;;;;;;;18.05;9.50;;;;;;;;;;2073527;28;20200;-52
2022/05/05 01:41:00;;;;;;;10.63;9.52;;;;;;;;;;2073282;28;20248;-51
2022/05/05 01:42:00;;;;;;;11.80;8.70;;;;;;;;;;2073525;28;20169;-50
2022/05/05 01:43:00;;;;;;;11.93;8.85;;;;;;;;;;2080906;28;20176;-53
2022/05/05 01:44:00;;;;;;;11.02;9.05;;;;;;;;;;2079667;28;20188;-53
2022/05/05 01:45:01;;;;;;;10.85;8.68;;;;;;;;;;2073732;28;20550;-54
2022/05/05 01:46:01;;;;;;;12.27;8.82;;;;;;;;;;2073419;28;20176;-51
2022/05/05 01:47:01;;;;;;;9.65;8.80;;;;;;;;;;2073614;28;20239;-52
2022/05/05 01:48:02;;;;;;;11.82;8.73;;;;;;;;;;2073552;28;20648;-53
2022/05/05 01:49:02;;;;;;;11.90;9.52;;;;;;;;;;2073632;28;20521;-54
2022/05/05 01:50:03;;;;;;;14.68;9.30;;;;;;;;;;2073677;28;20641;-51
2022/05/05 01:51:04;;;;;;;13.85;9.15;;;;;;;;;;2073888;28;20169;-53
2022/05/05 01:52:08;;;;;;;12.73;8.90;;;;;;;;;;2073715;28;20177;-52
2022/05/05 01:53:08;;;;;;;12.65;9.50;;;;;;;;;;2073743;28;20188;-53
2022/05/05 01:54:08;;;;;;;10.85;8.82;;;;;;;;;;2072129;28;20235;-52
2022/05/05 01:55:08;;;;;;;9.75;8.55;;;;;;;;;;2074247;28;20211;-54
2022/05/05 01:56:11;;;;;;;12.18;9.30;;;;;;;;;;2074478;28;20169;-54
2022/05/05 01:57:11;;;;;;;11.15;9.27;;;;;;;;;;2073861;28;20181;-52
2022/05/05 01:58:12;;;;;;;12.10;9.98;;;;;;;;;;2073758;28;20265;-56
2022/05/05 01:59:12;;;;;;;13.13;9.50;;;;;;;;;;2073773;28;20192;-53
2022/05/05 02:00:12;;;;;;;13.15;9.05;;;;;;;;;;2073774;28;21036;-57
2022/05/05 02:01:15;;;;;;;11.90;9.48;;;;;;;;;;2075023;28;20168;-55
2022/05/05 02:02:15;;;;;;;12.05;9.27;;;;;;;;;;2073966;28;20251;-55
2022/05/05 02:03:16;;;;;;;9.80;8.95;;;;;;;;;;2073585;28;20188;-56
2022/05/05 02:04:16;;;;;;;11.27;8.95;;;;;;;;;;2074057;28;20185;-54
2022/05/05 02:05:19;;;;;;;11.35;8.75;;;;;;;;;;2074846;28;20227;-53
2022/05/05 02:06:19;;;;;;;10.23;9.20;;;;;;;;;;2074292;28;20617;-52
2022/05/05 02:07:19;;;;;;;12.50;8.20;;;;;;;;;;2074364;28;20177;-53
2022/05/05 02:08:20;;;;;;;10.77;9.45;;;;;;;;;;2074174;28;20207;-57
2022/05/05 02:09:20;;;;;;;11.70;9.27;;;;;;;;;;2074741;28;20185;-54
2022/05/05 02:10:20;;;;;;;10.73;9.45;;;;;;;;;;2074083;28;20165;-55
2022/05/05 02:11:21;;;;;;;10.15;9.15;;;;;;;;;;2073694;28;20649;-52
2022/05/05 02:12:21;;;;;;;10.05;8.68;;;;;;;;;;2073781;28;20692;-55
2022/05/05 02:13:21;;;;;;;10.65;9.45;;;;;;;;;;2073640;28;20168;-55
2022/05/05 02:14:23;;;;;;;10.15;8.88;;;;;;;;;;2074501;28;20227;-55
2022/05/05 02:15:23;;;;;;;14.52;9.43;;;;;;;;;;2076051;28;20180;-55
2022/05/05 02:16:23;;;;;;;14.00;8.77;;;;;;;;;;2077035;28;20680;-55
2022/05/05 02:17:24;;;;;;;13.73;8.68;;;;;;;;;;2077279;28;20165;-59
2022/05/05 02:18:24;;;;;;;11.88;8.98;;;;;;;;;;2076676;28;20181;-53
2022/05/05 02:19:25;;;;;;;10.13;9.02;;;;;;;;;;2077699;28;20207;-56
2022/05/05 02:20:25;;;;;;;10.10;8.55;;;;;;;;;;2075724;28;20172;-56
2022/05/05 02:21:25;;;;;;;13.70;9.85;;;;;;;;;;2075032;28;20196;-56
2022/05/05 02:22:25;;;;;;;13.65;10.82;;;;;;;;;;2076076;28;20232;-53
2022/05/05 02:23:25;;;;;;;12.77;8.32;;;;;;;;;;2067971;28;20213;-53
2022/05/05 02:24:26;;;;;;;11.32;8.73;;;;;;;;;;2067229;28;20194;-54
2022/05/05 02:25:27;;;;;;;12.45;9.38;;;;;;;;;;2059672;28;20166;-52
2022/05/05 02:26:27;;;;;;;12.40;8.82;;;;;;;;;;2067794;28;20213;-55
2022/05/05 02:27:27;;;;;;;11.45;9.73;;;;;;;;;;2068463;28;20177;-53
2022/05/05 02:28:27;;;;;;;10.25;9.00;;;;;;;;;;2075118;28;20192;-55
2022/05/05 02:29:28;;;;;;;10.98;9.85;;;;;;;;;;2074481;28;20173;-55
2022/05/05 02:30:28;;;;;;;13.60;10.15;;;;;;;;;;2072892;28;20177;-54
2022/05/05 02:31:28;;;;;;;10.55;9.07;;;;;;;;;;2072651;28;20215;-55
2022/05/05 02:32:29;;;;;;;11.25;9.00;;;;;;;;;;2073423;28;20176;-54
2022/05/05 02:33:29;;;;;;;11.00;9.23;;;;;;;;;;2073171;28;20193;-55
2022/05/05 02:34:29;;;;;;;10.35;9.30;;;;;;;;;;2072711;28;20200;-53
2022/05/05 02:35:29;;;;;;;14.90;8.55;;;;;;;;;;2072936;28;20256;-52
2022/05/05 02:39:08;;;;;;;10.30;9.18;;;;;;;;;;2072024;28;20272;-56
2022/05/05 02:40:09;;;;;;;12.95;9.63;;;;;;;;;;2072661;28;20574;-54
2022/05/05 02:41:09;;;;;;;10.05;8.68;;;;;;;;;;2073126;28;20244;-54
2022/05/05 02:42:10;;;;;;;11.05;9.88;;;;;;;;;;2073138;28;20199;-56
2022/05/05 02:43:10;;;;;;;9.68;8.70;;;;;;;;;;2072316;28;20169;-51
2022/05/05 02:44:10;;;;;;;15.30;8.88;;;;;;;;;;2072735;28;20185;-55
2022/05/05 02:45:10;;;;;;;10.20;9.13;;;;;;;;;;2072263;28;20177;-55
2022/05/05 02:46:11;;;;;;;10.48;9.45;;;;;;;;;;2073695;28;20673;-55
2022/05/05 02:47:11;;;;;;;10.02;9.00;;;;;;;;;;2074443;28;20521;-51
2022/05/05 02:48:11;;;;;;;9.95;8.48;;;;;;;;;;2074586;28;20168;-56
2022/05/05 02:49:13;;;;;;;10.93;9.68;;;;;;;;;;2073847;28;20650;-54
2022/05/05 02:50:13;;;;;;;12.30;9.18;;;;;;;;;;2058132;28;20175;-56
2022/05/05 02:51:13;;;;;;;12.45;9.27;;;;;;;;;;2066265;28;20208;-55
2022/05/05 02:52:14;;;;;;;10.18;9.10;;;;;;;;;;2082458;28;20165;-52
2022/05/05 02:54:50;;;;;;;12.05;8.85;;;;;;;;;;2074099;28;20169;-53
2022/05/05 02:55:51;;;;;;;12.55;9.25;;;;;;;;;;2066551;28;20191;-57
2022/05/05 02:56:51;;;;;;;10.68;9.52;;;;;;;;;;2074119;28;20177;-53
2022/05/05 02:57:51;;;;;;;12.48;9.93;;;;;;;;;;2073820;28;20172;-54
2022/05/05 02:58:52;;;;;;;11.48;10.10;;;;;;;;;;2066652;28;20185;-56
2022/05/05 02:59:56;;;;;;;12.43;9.43;;;;;;;;;;2073262;28;20169;-57
2022/05/05 03:00:56;;;;;;;10.02;9.00;;;;;;;;;;2074575;28;20646;-53
2022/05/05 03:01:56;;;;;;;11.35;9.77;;;;;;;;;;2074513;28;20263;-55
2022/05/05 03:02:56;;;;;;;11.52;10.13;;;;;;;;;;2074714;28;20165;-53
2022/05/05 03:03:56;;;;;;;12.00;9.23;;;;;;;;;;2074063;28;20232;-55
2022/05/05 03:04:57;;;;;;;10.43;9.27;;;;;;;;;;2074187;28;20555;-54
2022/05/05 03:05:57;;;;;;;10.02;9.20;;;;;;;;;;2074616;28;20180;-51
2022/05/05 03:06:57;;;;;;;11.93;9.18;;;;;;;;;;2074635;28;20653;-52
2022/05/05 03:07:57;;;;;;;12.32;10.23;;;;;;;;;;2074537;28;20597;-55
2022/05/05 03:08:58;;;;;;;11.63;9.85;;;;;;;;;;2074614;28;20635;-52
2022/05/05 03:09:58;;;;;;;13.25;9.32;;;;;;;;;;2074244;28;20193;-51
2022/05/05 03:10:59;;;;;;;11.57;10.13;;;;;;;;;;2074434;28;20587;-53
2022/05/05 03:11:59;;;;;;;10.10;9.10;;;;;;;;;;2074221;28;20168;-55
2022/05/05 03:12:59;;;;;;;15.07;10.25;;;;;;;;;;2074324;28;20215;-54
2022/05/05 03:13:59;;;;;;;19.75;10.20;;;;;;;;;;2074111;28;20668;-54
2022/05/05 03:15:00;;;;;;;10.02;9.02;;;;;;;;;;2074266;28;20192;-59
2022/05/05 03:16:00;;;;;;;14.77;9.18;;;;;;;;;;2074619;28;20180;-53
2022/05/05 03:17:00;;;;;;;12.65;9.45;;;;;;;;;;2073902;28;20533;-54
2022/05/05 03:18:00;;;;;;;9.95;8.80;;;;;;;;;;2073941;28;20181;-54
2022/05/05 03:19:01;;;;;;;13.13;9.10;;;;;;;;;;2074377;28;20259;-52
2022/05/05 03:20:01;;;;;;;12.68;9.60;;;;;;;;;;2074280;28;20176;-54
2022/05/05 03:21:02;;;;;;;12.15;9.57;;;;;;;;;;2073870;28;20169;-51
2022/05/05 03:22:03;;;;;;;11.70;10.07;;;;;;;;;;2073712;28;20161;-55
2022/05/05 03:23:03;;;;;;;13.98;9.57;;;;;;;;;;2074387;28;20263;-53
2022/05/05 03:24:04;;;;;;;12.40;9.02;;;;;;;;;;2074211;28;20678;-49
2022/05/05 03:25:05;;;;;;;11.52;9.85;;;;;;;;;;2073699;28;20196;-53
2022/05/05 03:26:05;;;;;;;10.07;8.93;;;;;;;;;;2073817;28;20168;-55
2022/05/05 03:27:05;;;;;;;12.65;10.43;;;;;;;;;;2074438;28;20640;-54
2022/05/05 03:28:06;;;;;;;10.25;9.15;;;;;;;;;;2080247;28;20188;-52
2022/05/05 03:29:06;;;;;;;9.68;8.60;;;;;;;;;;2082040;28;20203;-55
2022/05/05 03:30:06;;;;;;;13.57;9.63;;;;;;;;;;2074311;28;20181;-52
2022/05/05 03:31:07;;;;;;;10.52;9.32;;;;;;;;;;2074093;28;20171;-50
2022/05/05 03:32:07;;;;;;;14.55;9.73;;;;;;;;;;2074569;28;20185;-53
2022/05/05 03:33:07;;;;;;;11.02;9.30;;;;;;;;;;2074287;28;20169;-51
2022/05/05 03:34:08;;;;;;;13.23;9.75;;;;;;;;;;2072613;28;20704;-52
2022/05/05 03:35:08;;;;;;;10.50;9.25;;;;;;;;;;2065539;28;20197;-53
2022/05/05 03:36:09;;;;;;;12.75;9.63;;;;;;;;;;2066847;28;20177;-54
2022/05/05 03:37:09;;;;;;;12.98;10.07;;;;;;;;;;2071172;28;20268;-55
2022/05/05 03:38:10;;;;;;;12.30;9.85;;;;;;;;;;2074497;28;20165;-56
2022/05/05 03:39:10;;;;;;;12.43;10.73;;;;;;;;;;2073795;28;20567;-53
2022/05/05 03:40:10;;;;;;;14.55;10.18;;;;;;;;;;2073550;28;20181;-51
2022/05/05 03:41:11;;;;;;;11.30;10.10;;;;;;;;;;2073561;28;20200;-52
2022/05/05 03:42:11;;;;;;;10.80;9.50;;;;;;;;;;2074212;28;20575;-54
2022/05/05 03:43:11;;;;;;;12.93;9.88;;;;;;;;;;2074145;28;20248;-55
2022/05/05 03:44:12;;;;;;;13.23;10.13;;;;;;;;;;2072742;28;20196;-52
2022/05/05 03:45:12;;;;;;;13.52;10.18;;;;;;;;;;2073826;28;20186;-56
2022/05/05 03:46:13;;;;;;;14.57;9.63;;;;;;;;;;2073596;28;20249;-54
2022/05/05 03:47:13;;;;;;;11.07;9.07;;;;;;;;;;2074181;28;20661;-53
2022/05/05 03:48:13;;;;;;;16.10;10.57;;;;;;;;;;2081646;28;20668;-55
2022/05/05 03:49:13;;;;;;;17.02;10.55;;;;;;;;;;2073301;28;20180;-52
2022/05/05 03:50:13;;;;;;;12.93;10.18;;;;;;;;;;2073148;28;20183;-54
2022/05/05 03:51:14;;;;;;;16.27;9.45;;;;;;;;;;2073597;28;20173;-54
2022/05/05 03:52:14;;;;;;;10.77;9.77;;;;;;;;;;2073563;28;20181;-52
2022/05/05 03:53:14;;;;;;;12.32;9.85;;;;;;;;;;2074141;28;20176;-55
2022/05/05 03:54:15;;;;;;;11.82;10.30;;;;;;;;;;2073201;28;20207;-54
2022/05/05 03:55:15;;;;;;;17.20;10.73;;;;;;;;;;2074227;28;20173;-54
2022/05/05 03:56:15;;;;;;;10.75;9.65;;;;;;;;;;2074718;28;20192;-52
2022/05/05 03:57:16;;;;;;;12.57;10.30;;;;;;;;;;2073917;28;20215;-51
2022/05/05 03:58:16;;;;;;;14.63;10.18;;;;;;;;;;2073460;28;20251;-55
2022/05/05 03:59:16;;;;;;;10.90;9.43;;;;;;;;;;2074557;28;20177;-52
2022/05/05 04:00:20;;;;;;;10.70;9.70;;;;;;;;;;2074338;28;20172;-54
2022/05/05 04:01:20;;;;;;;13.48;9.75;;;;;;;;;;2074721;28;20193;-56
2022/05/05 04:02:21;;;;;;;11.88;9.82;;;;;;;;;;2074279;28;20199;-54
2022/05/05 04:03:30;;;;;;;14.63;9.65;;;;;;;;;;2074761;28;20537;-53
2022/05/05 04:04:30;;;;;;;11.35;9.18;;;;;;;;;;2074159;28;20161;-60
2022/05/05 04:05:31;;;;;;;11.25;9.43;;;;;;;;;;2074754;28;20295;-55
2022/05/05 04:06:32;;;;;;;14.65;10.57;;;;;;;;;;2074546;28;20178;-54
2022/05/05 04:07:32;;;;;;;12.95;10.05;;;;;;;;;;2074519;28;20187;-54
2022/05/05 04:08:33;;;;;;;14.90;10.05;;;;;;;;;;2074922;28;20173;-54
2022/05/05 04:09:34;;;;;;;12.18;10.38;;;;;;;;;;2074361;28;20177;-51
2022/05/05 04:10:34;;;;;;;12.18;10.48;;;;;;;;;;2074607;28;20501;-56
2022/05/05 04:11:34;;;;;;;11.63;10.50;;;;;;;;;;2074632;28;20245;-55
2022/05/05 04:12:34;;;;;;;13.43;10.15;;;;;;;;;;2075020;28;20676;-56
2022/05/05 04:13:35;;;;;;;12.32;10.30;;;;;;;;;;2074579;28;20214;-52
2022/05/05 04:14:36;;;;;;;11.23;9.55;;;;;;;;;;2074358;28;20596;-55
2022/05/05 04:15:36;;;;;;;12.18;9.57;;;;;;;;;;2074427;28;20177;-53
2022/05/05 04:16:37;;;;;;;14.10;9.35;;;;;;;;;;2074865;28;20184;-54
2022/05/05 04:17:37;;;;;;;12.38;9.23;;;;;;;;;;2075156;28;20165;-57
2022/05/05 04:18:37;;;;;;;11.80;10.30;;;;;;;;;;2074765;28;20185;-55
2022/05/05 04:19:39;;;;;;;15.98;10.23;;;;;;;;;;2074594;28;20173;-55
2022/05/05 04:20:41;;;;;;;10.77;9.68;;;;;;;;;;2074265;28;20189;-54
2022/05/05 04:21:41;;;;;;;11.60;10.00;;;;;;;;;;2073543;28;20176;-56
2022/05/05 04:22:42;;;;;;;14.05;10.70;;;;;;;;;;2074090;28;20209;-53
2022/05/05 04:23:42;;;;;;;14.05;9.93;;;;;;;;;;2074278;28;20228;-59
2022/05/05 04:24:42;;;;;;;15.30;10.10;;;;;;;;;;2072991;28;20179;-52
2022/05/05 04:25:43;;;;;;;10.68;9.57;;;;;;;;;;2073431;28;20177;-54
2022/05/05 04:26:45;;;;;;;12.85;9.27;;;;;;;;;;2073770;28;20635;-52
2022/05/05 04:27:46;;;;;;;11.23;9.50;;;;;;;;;;2077134;28;20533;-53
2022/05/05 04:28:49;;;;;;;12.30;9.68;;;;;;;;;;2082532;28;20168;-56
2022/05/05 04:29:49;;;;;;;11.30;9.75;;;;;;;;;;2076672;28;20184;-54
2022/05/05 04:30:49;;;;;;;11.85;9.85;;;;;;;;;;2074260;28;20180;-52
2022/05/05 04:31:50;;;;;;;11.77;10.05;;;;;;;;;;2073430;28;20564;-53
2022/05/05 04:32:50;;;;;;;11.45;10.13;;;;;;;;;;2065252;28;20177;-57
2022/05/05 04:33:51;;;;;;;15.02;10.20;;;;;;;;;;2073438;28;20197;-52
2022/05/05 04:34:53;;;;;;;13.18;10.45;;;;;;;;;;2073225;28;20193;-53
2022/05/05 04:35:53;;;;;;;13.98;9.88;;;;;;;;;;2074653;28;20173;-53
2022/05/05 04:36:54;;;;;;;14.80;10.40;;;;;;;;;;2075518;28;20157;-50
2022/05/05 04:37:54;;;;;;;10.57;9.40;;;;;;;;;;2074750;28;20577;-52
2022/05/05 04:38:54;;;;;;;10.90;9.07;;;;;;;;;;2075070;28;20169;-51
2022/05/05 04:39:55;;;;;;;15.13;9.82;;;;;;;;;;2075367;28;20765;-51
2022/05/05 04:40:55;;;;;;;12.30;9.90;;;;;;;;;;2075788;28;20180;-52
2022/05/05 04:41:56;;;;;;;11.45;9.50;;;;;;;;;;2075411;28;20168;-51
2022/05/05 04:42:56;;;;;;;12.68;9.23;;;;;;;;;;2075816;28;20182;-50
2022/05/05 04:43:56;;;;;;;10.63;9.55;;;;;;;;;;2074856;28;20184;-52
2022/05/05 04:44:57;;;;;;;12.40;9.60;;;;;;;;;;2069710;28;20184;-49
2022/05/05 04:45:57;;;;;;;13.57;9.65;;;;;;;;;;2067637;28;20208;-54
2022/05/05 04:46:57;;;;;;;12.57;10.32;;;;;;;;;;2068155;28;20170;-54
2022/05/05 04:47:58;;;;;;;12.80;10.10;;;;;;;;;;2067312;28;20578;-51
2022/05/05 04:48:58;;;;;;;14.68;10.18;;;;;;;;;;2066810;28;20288;-51
2022/05/05 04:49:59;;;;;;;13.38;9.85;;;;;;;;;;2075888;28;20681;-51
2022/05/05 04:50:59;;;;;;;11.30;9.15;;;;;;;;;;2076492;28;20171;-51
2022/05/05 04:51:59;;;;;;;13.38;9.57;;;;;;;;;;2088956;28;20179;-51
2022/05/05 04:53:00;;;;;;;14.45;9.95;;;;;;;;;;2092652;28;20235;-55
2022/05/05 04:54:00;;;;;;;12.65;9.80;;;;;;;;;;2084242;28;20661;-50
2022/05/05 04:55:00;;;;;;;12.63;9.52;;;;;;;;;;2082590;28;20259;-52
2022/05/05 04:56:00;;;;;;;13.73;9.80;;;;;;;;;;2080911;28;20164;-52
2022/05/05 04:57:01;;;;;;;13.68;9.68;;;;;;;;;;2075337;28;20178;-51
2022/05/05 04:58:01;;;;;;;10.88;9.88;;;;;;;;;;2075017;28;20165;-51
2022/05/05 04:59:02;;;;;;;15.75;10.23;;;;;;;;;;2075366;28;20173;-52
2022/05/05 05:00:03;;;;;;;13.25;9.68;;;;;;;;;;2075163;28;20177;-51
2022/05/05 05:01:03;;;;;;;16.05;10.35;;;;;;;;;;2074784;28;20231;-52
2022/05/05 05:02:04;;;;;;;15.63;10.63;;;;;;;;;;2075159;28;20161;-53
2022/05/05 05:03:04;;;;;;;15.00;10.25;;;;;;;;;;2073643;28;20169;-52
2022/05/05 05:05:05;;;;;;;11.27;10.13;;;;;;;;;;2066002;28;20196;-51
2022/05/05 05:06:06;;;;;;;11.75;9.90;;;;;;;;;;2072099;28;20212;-52
2022/05/05 05:07:06;;;;;;;13.10;10.38;;;;;;;;;;2071437;28;20264;-53
2022/05/05 05:08:06;;;;;;;10.70;9.38;;;;;;;;;;2073302;28;20638;-53
2022/05/05 05:09:07;;;;;;;12.18;10.27;;;;;;;;;;2069306;28;20314;-52
2022/05/05 05:10:08;;;;;;;14.20;9.57;;;;;;;;;;2069879;28;20173;-55
2022/05/05 05:11:08;;;;;;;10.55;9.38;;;;;;;;;;2071297;28;20602;-56
2022/05/05 05:12:09;;;;;;;14.65;10.00;;;;;;;;;;2085275;28;20205;-51
2022/05/05 05:13:09;;;;;;;12.52;10.60;;;;;;;;;;2082285;28;20248;-54
2022/05/05 05:14:09;;;;;;;15.57;10.73;;;;;;;;;;2068131;28;20240;-54
2022/05/05 05:15:10;;;;;;;11.77;9.95;;;;;;;;;;2064207;28;20181;-52
2022/05/05 05:16:10;;;;;;;12.13;9.95;;;;;;;;;;2072823;28;20177;-53
2022/05/05 05:17:10;;;;;;;12.60;9.80;;;;;;;;;;2073436;28;20184;-51
2022/05/05 05:18:10;;;;;;;15.00;9.93;;;;;;;;;;2073365;28;20161;-55
2022/05/05 05:19:10;;;;;;;11.60;9.23;;;;;;;;;;2072032;28;20181;-55
2022/05/05 05:20:12;;;;;;;12.93;10.63;;;;;;;;;;2073152;28;20187;-53
2022/05/05 05:21:12;;;;;;;15.90;10.52;;;;;;;;;;2073741;28;20220;-53
2022/05/05 05:22:13;;;;;;;20.65;11.20;;;;;;;;;;2072876;28;20217;-54
2022/05/05 05:23:13;;;;;;;19.80;11.70;;;;;;;;;;2073002;28;20698;-54
2022/05/05 05:24:14;;;;;;;20.83;10.90;;;;;;;;;;2072649;28;20319;-56
2022/05/05 05:25:14;;;;;;;25.25;11.73;;;;;;;;;;2073513;28;20260;-53
2022/05/05 05:26:14;;;;;;;21.73;11.00;;;;;;;;;;2073921;28;20200;-55
2022/05/05 05:27:14;;;;;;;18.27;11.13;;;;;;;;;;2073170;28;20176;-53
2022/05/05 05:28:15;;;;;;;21.25;11.13;;;;;;;;;;2073241;28;20229;-53
2022/05/05 05:29:15;;;;;;;14.23;10.82;;;;;;;;;;2072715;28;20180;-53
2022/05/05 05:30:15;;;;;;;19.13;10.80;;;;;;;;;;2072378;28;20215;-56
2022/05/05 05:31:20;;;;;;;22.90;11.43;;;;;;;;;;2073385;28;20161;-52
2022/05/05 05:32:20;;;;;;;13.25;9.88;;;;;;;;;;2073103;28;20264;-51
2022/05/05 05:33:20;;;;;;;15.43;9.95;;;;;;;;;;2073023;28;20175;-52
2022/05/05 05:34:20;;;;;;;13.55;9.88;;;;;;;;;;2072580;28;20662;-52
2022/05/05 05:35:21;;;;;;;14.77;10.85;;;;;;;;;;2073237;28;20199;-54
2022/05/05 05:36:21;;;;;;;15.10;10.00;;;;;;;;;;2073198;28;20189;-52
2022/05/05 05:37:21;;;;;;;15.15;9.98;;;;;;;;;;2073762;28;20181;-52
2022/05/05 05:38:21;;;;;;;15.32;10.40;;;;;;;;;;2073199;28;20671;-51
2022/05/05 05:39:22;;;;;;;20.85;11.60;;;;;;;;;;2071032;28;20536;-56
2022/05/05 05:40:22;;;;;;;15.40;11.48;;;;;;;;;;2063912;28;20169;-59
2022/05/05 05:41:22;;;;;;;17.88;11.20;;;;;;;;;;2072369;28;20181;-59
2022/05/05 05:42:22;;;;;;;19.95;12.10;;;;;;;;;;2072779;28;20681;-60
2022/05/05 05:43:23;;;;;;;17.35;12.02;;;;;;;;;;2073207;28;20168;-56
2022/05/05 05:44:23;;;;;;;13.80;11.02;;;;;;;;;;2072386;28;20708;-55
2022/05/05 05:45:24;;;;;;;19.80;11.20;;;;;;;;;;2073169;28;20173;-57
2022/05/05 05:46:24;;;;;;;21.58;12.50;;;;;;;;;;2070528;28;20197;-59
2022/05/05 05:47:24;;;;;;;21.13;12.40;;;;;;;;;;2072918;28;20168;-56
2022/05/05 05:48:24;;;;;;;13.20;11.80;;;;;;;;;;2072771;28;20661;-56
2022/05/05 05:49:25;;;;;;;20.50;11.88;;;;;;;;;;2073111;28;20208;-56
2022/05/05 05:50:27;;;;;;;29.35;11.88;;;;;;;;;;2072839;28;20252;-55
2022/05/05 05:51:27;;;;;;;13.93;12.07;;;;;;;;;;2072941;28;20200;-58
2022/05/05 05:52:27;;;;;;;13.88;11.80;;;;;;;;;;2072993;28;20646;-59
2022/05/05 05:53:27;;;;;;;16.08;12.02;;;;;;;;;;2072568;28;20268;-61
2022/05/05 05:54:28;;;;;;;27.02;13.00;;;;;;;;;;2072557;28;20188;-62
2022/05/05 05:55:28;;;;;;;23.08;12.52;;;;;;;;;;2072867;28;20192;-62
2022/05/05 05:56:28;;;;;;;19.23;12.63;;;;;;;;;;2072150;28;20206;-59
2022/05/05 05:57:28;;;;;;;17.30;14.88;;;;;;;;;;2073317;28;20177;-63
2022/05/05 05:58:29;;;;;;;23.58;13.60;;;;;;;;;;2072228;28;20197;-65
2022/05/05 05:59:29;;;;;;;18.88;14.80;;;;;;;;;;2070471;28;20871;-59
2022/05/05 06:00:30;;;;;;;15.77;11.88;;;;;;;;;;2072694;28;20180;-55
2022/05/05 06:04:08;;;;;;;17.70;11.52;;;;;;;;;;2067178;28;20181;-54
2022/05/05 06:05:09;;;;;;;22.33;12.65;;;;;;;;;;2064516;28;20634;-52
2022/05/05 06:06:09;;;;;;;16.55;11.07;;;;;;;;;;2065588;28;20545;-53
2022/05/05 06:07:09;;;;;;;16.58;11.75;;;;;;;;;;2065762;28;20173;-56
2022/05/05 06:08:09;;;;;;;22.63;13.50;;;;;;;;;;2070486;28;20170;-55
2022/05/05 06:09:10;;;;;;;17.38;10.90;;;;;;;;;;2073100;28;20192;-57
2022/05/05 06:10:10;;;;;;;18.60;14.75;;;;;;;;;;2073512;28;20181;-52
2022/05/05 06:11:11;;;;;;;24.77;15.32;;;;;;;;;;2073218;28;20196;-54
2022/05/05 06:12:11;;;;;;;18.30;14.73;;;;;;;;;;2072891;28;20535;-52
2022/05/05 06:13:12;;;;;;;16.05;12.48;;;;;;;;;;2072383;28;20633;-53